Izmir, Turkey

3:24 AM EEST on August 01, 2014 (GMT +0300)
Adnan Menderes (LTBJ) Elev 394 ft | 38.29 °N, 27.15 °E | Change Station

Current weather conditions updated 34 minutes ago

Clear
Clear
73 °F
Feels Like 73 °F
N
4
Wind Variable Wind from South

Today is forecast to be Much Cooler than yesterday.

Today
High -- | Low -- °F
--% Chance of Precip.
Yesterday
High -- | Low -- °F
Precip. -- in
6:13 AM 8:21 PM
Waxing Crescent, 22% visible
Pressure 29.65 in
Visibility -9999.0 miles
Clouds
Dew Point 57 °F
Humidity 57%
Rainfall 0.00 in
Snow Depth Not available.
UV Not available.
Pollen Not available.
Air Quality Not available.
Flu Activity Not available.
METAR LTBJ 312350Z 18003KT 140V210 CAVOK 23/14 Q1004 NOSIG RMK RWY16 14004KT

More Conditions Fewer Conditions

Pressure 29.65 in
Visibility -9999.0 miles
Clouds
Dew Point 57 °F
Humidity 57%
Rainfall 0.00 in
Snow Depth Not available.
UV Not available.
Pollen Not available.
Air Quality Not available.
Flu Activity Not available.
METAR LTBJ 312350Z 18003KT 140V210 CAVOK 23/14 Q1004 NOSIG RMK RWY16 14004KT

More Conditions Fewer Conditions

10-Day Weather Forecast

Almanac

Astronomy

Aug. 01, 2014 Rise Set
Actual Time 6:13 AM EEST 8:21 PM EEST
Civil Twilight 5:44 AM EEST 8:50 PM EEST
Nautical Twilight 5:08 AM EEST 9:26 PM EEST
Astronomical Twilight 4:29 AM EEST 10:05 PM EEST
Moon 11:13 AM EEST 11:00 PM EEST
Length of Visible Light 15h 06m
Length of Day
14h 07m
Tomorrow will be 1m 51s shorter.
Waxing Crescent, 22% of the Moon is Illuminated
Jul 31
Waxing Crescent
Aug 3
First Quarter
Aug 10
Full
Aug 17
Last Quarter
Aug 25
New

Yesterday's Extremes

Country Highs Country Lows

Community

WunderPhotos

Upload Photos

1,739,474 photos uploaded!

Nearby

Snow Depth

Not available.

Earthquake Activity

City Distance Mag. Time & Date
No recent earthquake activity has been reported nearby.
Minimum magnitude displayed is 2.5.

Coastal Water Temperatures

Place Temperature
No Stations Reporting

Nearby Weather Stations

There are no personal weather stations in this area.